Time;durP1;ratioP1;P1;durP2;ratioP2;P2;SDS_P1;SDS_P2;PMS_P1;PMS_P2;Temp;Humidity;BMP_temperature;BMP_pressure;BME280_temperature;BME280_humidity;BME280_pressure;Samples;Min_cycle;Max_cycle;Signal;HPM_P1;HPM_P2
2021/12/11 00:10:21;;;;;;;253.55;76.90;;;;;;;-1.14;99.21;99532.66;714394;1200;115587;-73
2021/12/11 00:25:23;;;;;;;165.70;54.05;;;;;;;-1.36;98.60;99550.02;713912;1201;114542;-74
2021/12/11 00:40:27;;;;;;;287.83;90.70;;;;;;;-1.66;98.13;99554.95;713769;1177;114160;-73
2021/12/11 00:55:38;;;;;;;382.33;111.13;;;;;;;-1.84;97.45;99556.67;713839;1178;114289;-73
2021/12/11 01:10:41;;;;;;;244.80;72.73;;;;;;;-2.12;96.85;99575.98;713888;1205;114300;-73
2021/12/11 01:25:43;;;;;;;176.63;54.10;;;;;;;-2.18;96.72;99599.39;713857;1203;114873;-73
2021/12/11 01:40:51;;;;;;;173.63;54.85;;;;;;;-2.23;97.13;99598.77;713916;1206;115583;-74
2021/12/11 01:55:55;;;;;;;151.55;48.70;;;;;;;-2.37;96.34;99627.67;714296;1202;114387;-74
2021/12/11 02:11:14;;;;;;;149.63;44.73;;;;;;;-2.57;95.80;99619.12;713709;1203;115112;-74
2021/12/11 02:26:18;;;;;;;117.80;33.33;;;;;;;-2.52;96.67;99642.87;713667;1179;114461;-74
2021/12/11 02:41:32;;;;;;;100.00;32.40;;;;;;;-2.61;95.88;99675.80;713619;1200;115541;-74
2021/12/11 02:56:39;;;;;;;93.60;31.20;;;;;;;-2.60;97.12;99693.75;713839;1205;114818;-74
2021/12/11 03:11:41;;;;;;;199.55;47.80;;;;;;;-2.04;98.72;99699.02;713982;1206;114087;-73
2021/12/11 03:26:47;;;;;;;200.40;58.47;;;;;;;-1.90;99.18;99724.94;713913;1205;114294;-73
2021/12/11 03:41:51;;;;;;;213.30;57.27;;;;;;;-1.74;99.95;99719.07;713798;1202;115410;-74
2021/12/11 03:56:55;;;;;;;227.55;66.75;;;;;;;-1.69;100.00;99730.84;713743;1199;114491;-73
2021/12/11 04:11:57;;;;;;;164.33;45.97;;;;;;;-1.45;100.00;99742.61;713931;1200;114755;-75
2021/12/11 04:27:01;;;;;;;136.57;40.37;;;;;;;-1.56;100.00;99754.27;714862;1200;114549;-72
2021/12/11 04:42:21;;;;;;;116.07;36.07;;;;;;;-1.54;100.00;99770.45;714883;1200;114349;-73
2021/12/11 04:57:56;;;;;;;157.57;51.27;;;;;;;-1.68;100.00;99776.23;714068;1200;114582;-71
2021/12/11 05:12:59;;;;;;;124.03;35.38;;;;;;;-1.70;100.00;99777.21;713849;1200;115595;-70
2021/12/11 05:28:01;;;;;;;86.23;28.63;;;;;;;-1.77;100.00;99804.09;713903;1200;114332;-70
2021/12/11 05:43:05;;;;;;;101.38;32.95;;;;;;;-1.63;100.00;99837.75;713959;1188;114167;-70
2021/12/11 05:58:15;;;;;;;119.73;35.53;;;;;;;-1.79;100.00;99857.35;713786;1205;115343;-70
2021/12/11 06:13:18;;;;;;;166.43;53.48;;;;;;;-1.90;100.00;99880.94;713830;1193;114463;-71
2021/12/11 06:28:21;;;;;;;310.77;78.43;;;;;;;-1.73;100.00;99916.22;713631;1190;114364;-70
2021/12/11 06:43:24;;;;;;;109.83;36.73;;;;;;;-1.67;100.00;99934.80;713670;1202;115234;-72
2021/12/11 06:58:27;;;;;;;156.00;52.07;;;;;;;-1.29;100.00;99953.78;713977;1185;114223;-74
2021/12/11 07:13:29;;;;;;;171.33;62.15;;;;;;;-0.97;100.00;99972.95;713999;1200;114747;-74
2021/12/11 07:28:31;;;;;;;277.95;78.68;;;;;;;-0.77;100.00;99991.82;713923;1200;114727;-74
2021/12/11 07:43:35;;;;;;;252.13;63.33;;;;;;;-0.71;100.00;100002.67;713903;1200;116104;-74
2021/12/11 07:58:38;;;;;;;119.13;39.73;;;;;;;-0.37;100.00;100028.62;714130;1196;114462;-75
2021/12/11 08:13:43;;;;;;;114.13;36.03;;;;;;;-0.27;100.00;100053.07;714563;1205;114129;-75
2021/12/11 08:28:48;;;;;;;;;;;;;;;-0.20;100.00;100085.41;714138;1202;114923;-75
2021/12/11 08:43:58;;;;;;;154.50;51.97;;;;;;;0.16;100.00;100092.31;714394;1202;100436;-77
2021/12/11 08:59:01;;;;;;;98.65;33.05;;;;;;;0.16;100.00;100096.65;715216;1177;113635;-76
2021/12/11 09:14:12;;;;;;;236.15;80.78;;;;;;;0.18;100.00;100099.97;714247;1200;114573;-75
2021/12/11 09:29:23;;;;;;;141.53;51.37;;;;;;;0.30;100.00;100121.78;714584;1203;114440;-74
2021/12/11 09:44:38;;;;;;;97.55;36.35;;;;;;;0.21;100.00;100138.55;714659;1205;115387;-76
2021/12/11 09:59:42;;;;;;;119.13;42.37;;;;;;;0.27;100.00;100151.14;714053;1203;114527;-76
2021/12/11 10:14:49;;;;;;;269.07;79.10;;;;;;;0.49;100.00;100174.19;714062;1177;114087;-78
2021/12/11 10:29:53;;;;;;;228.93;64.60;;;;;;;0.88;100.00;100167.16;714075;1200;114096;-74
2021/12/11 10:44:58;;;;;;;437.10;132.50;;;;;;;0.88;100.00;100182.65;714213;1201;114074;-74
2021/12/11 11:00:16;;;;;;;171.17;62.07;;;;;;;0.93;100.00;100201.34;713941;1177;114521;-74
2021/12/11 11:15:22;;;;;;;134.00;48.55;;;;;;;1.05;100.00;100212.82;714100;1205;114256;-74
2021/12/11 11:30:32;;;;;;;127.33;38.07;;;;;;;0.96;100.00;100229.63;713916;1200;115637;-73
2021/12/11 11:45:36;;;;;;;274.50;72.33;;;;;;;1.02;100.00;100261.22;714085;1204;114219;-71
2021/12/11 12:00:52;;;;;;;183.95;53.33;;;;;;;1.00;100.00;100271.63;714327;1206;115456;-75
2021/12/11 12:16:08;;;;;;;206.85;67.15;;;;;;;1.05;100.00;100284.34;714480;1177;115066;-75
2021/12/11 12:31:16;;;;;;;115.00;37.35;;;;;;;0.97;100.00;100300.20;725025;1177;114442;-74
2021/12/11 12:46:33;;;;;;;431.20;138.73;;;;;;;1.06;100.00;100298.94;714856;1203;114350;-74
2021/12/11 13:01:40;;;;;;;354.90;91.13;;;;;;;0.95;100.00;100312.34;714858;1177;115412;-74
2021/12/11 13:16:47;;;;;;;374.70;104.43;;;;;;;0.90;100.00;100335.83;714963;1177;114351;-71
2021/12/11 13:31:59;;;;;;;230.27;65.83;;;;;;;0.93;100.00;100340.02;714940;1180;114488;-71
2021/12/11 13:47:09;;;;;;;452.45;114.90;;;;;;;0.81;100.00;100344.83;715202;1177;114283;-73
2021/12/11 14:02:14;;;;;;;126.38;40.40;;;;;;;0.90;100.00;100379.74;714930;1177;115409;-72
2021/12/11 14:17:18;;;;;;;444.40;120.25;;;;;;;0.84;100.00;100377.44;714842;1199;115305;-74
2021/12/11 14:32:32;;;;;;;210.68;62.23;;;;;;;0.91;100.00;100403.82;714851;1200;115577;-71
2021/12/11 14:47:35;;;;;;;134.58;44.38;;;;;;;0.80;100.00;100445.64;714861;1199;114383;-72
2021/12/11 15:02:40;;;;;;;124.33;43.40;;;;;;;0.74;100.00;100463.98;714991;1176;114473;-72
2021/12/11 15:17:43;;;;;;;125.37;45.80;;;;;;;0.77;100.00;100484.53;715182;1200;114792;-73
2021/12/11 15:32:47;;;;;;;100.47;35.37;;;;;;;0.71;100.00;100501.11;715133;1178;114392;-72
2021/12/11 15:47:54;;;;;;;85.25;27.90;;;;;;;0.58;100.00;100512.88;715374;1199;116270;-72
2021/12/11 16:02:56;;;;;;;94.50;32.30;;;;;;;0.57;100.00;100530.13;714992;1176;114445;-72
2021/12/11 16:18:00;;;;;;;118.83;38.00;;;;;;;0.33;100.00;100545.73;714889;1203;114251;-72
2021/12/11 16:33:04;;;;;;;117.35;38.30;;;;;;;0.01;100.00;100559.93;714954;1200;115827;-75
2021/12/11 16:48:08;;;;;;;112.83;36.43;;;;;;;0.06;100.00;100581.23;714834;1177;114451;-72
2021/12/11 17:03:11;;;;;;;130.57;39.10;;;;;;;0.07;100.00;100600.15;714598;1205;115842;-72
2021/12/11 17:18:17;;;;;;;81.95;29.65;;;;;;;-0.19;100.00;100612.30;714980;1202;115128;-71
2021/12/11 17:33:19;;;;;;;106.60;34.55;;;;;;;-0.45;100.00;100626.16;715062;1177;114219;-73
2021/12/11 17:48:21;;;;;;;129.50;41.80;;;;;;;-0.84;100.00;100655.88;715644;1177;114591;-74
2021/12/11 18:03:25;;;;;;;122.13;40.48;;;;;;;-0.91;100.00;100675.86;715381;1200;115398;-74
2021/12/11 18:18:41;;;;;;;114.45;44.35;;;;;;;-0.98;100.00;100689.00;714692;1178;114855;-73
2021/12/11 18:33:45;;;;;;;133.10;48.53;;;;;;;-1.04;100.00;100685.73;715298;1193;115371;-73
2021/12/11 18:48:51;;;;;;;117.00;37.90;;;;;;;-1.10;100.00;100700.55;714874;1200;114667;-73
2021/12/11 19:04:00;;;;;;;145.20;46.00;;;;;;;-1.26;100.00;100734.50;715726;1202;114583;-73
2021/12/11 19:19:04;;;;;;;99.70;36.83;;;;;;;-1.37;100.00;100750.30;715744;1200;114890;-73
2021/12/11 19:34:08;;;;;;;;;;;;;;;-1.26;100.00;100773.13;714981;1207;114350;-73
2021/12/11 19:49:13;;;;;;;120.13;41.13;;;;;;;-1.29;100.00;100786.10;714976;1200;102026;-74
2021/12/11 20:04:16;;;;;;;159.35;46.90;;;;;;;-1.25;100.00;100789.44;715118;1202;116272;-73
2021/12/11 20:19:26;;;;;;;369.65;103.88;;;;;;;-1.30;100.00;100786.16;714613;1191;114535;-73
2021/12/11 20:34:30;;;;;;;274.40;70.68;;;;;;;-1.54;100.00;100807.42;715021;1202;114676;-74
2021/12/11 20:49:33;;;;;;;106.43;34.40;;;;;;;-1.66;100.00;100830.95;715398;1200;115085;-73
2021/12/11 21:04:41;;;;;;;93.60;29.97;;;;;;;-2.02;100.00;100839.64;715302;1202;114552;-72
2021/12/11 21:19:53;;;;;;;144.18;46.88;;;;;;;-2.09;100.00;100862.98;714649;1202;114898;-73
2021/12/11 21:35:04;;;;;;;82.25;29.55;;;;;;;-2.12;100.00;100878.50;714451;1203;116126;-73
2021/12/11 21:50:14;;;;;;;78.70;26.53;;;;;;;-2.11;100.00;100899.02;714267;1200;114728;-74
2021/12/11 22:05:27;;;;;;;73.23;22.13;;;;;;;-2.22;100.00;100904.44;714264;1205;114814;-73
2021/12/11 22:20:36;;;;;;;76.88;26.53;;;;;;;-2.41;100.00;100918.63;713797;1189;114314;-74
2021/12/11 22:35:58;;;;;;;90.48;27.78;;;;;;;-2.42;100.00;100942.63;714179;1186;114320;-74
2021/12/11 22:51:13;;;;;;;86.50;26.95;;;;;;;-2.54;100.00;100949.73;714051;1202;115275;-73
2021/12/11 23:06:19;;;;;;;72.00;23.45;;;;;;;-2.69;100.00;100965.51;713991;1199;114369;-73
2021/12/11 23:21:29;;;;;;;80.53;24.18;;;;;;;-2.63;100.00;100978.20;713863;1188;114376;-73
2021/12/11 23:36:39;;;;;;;88.60;25.63;;;;;;;-2.74;100.00;100990.45;713988;1202;115142;-73
2021/12/11 23:51:46;;;;;;;79.63;24.48;;;;;;;-2.63;100.00;101006.45;713814;1181;114397;-73
